Time;durP1;ratioP1;P1;durP2;ratioP2;P2;SDS_P1;SDS_P2;PMS_P1;PMS_P2;Temp;Humidity;BMP_temperature;BMP_pressure;BME280_temperature;BME280_humidity;BME280_pressure;Samples;Min_cycle;Max_cycle;Signal;HPM_P1;HPM_P2
2022/09/23 00:00:19;;;;;;;27.65;6.40;;;20.40;67.20;;;;;;4815359;29;20031;-74
2022/09/23 00:02:47;;;;;;;25.73;6.82;;;20.40;67.10;;;;;;4809954;29;20030;-75
2022/09/23 00:05:13;;;;;;;17.65;5.93;;;20.40;67.00;;;;;;4820308;29;20389;-74
2022/09/23 00:07:40;;;;;;;14.98;6.50;;;20.40;67.00;;;;;;4795329;29;20027;-74
2022/09/23 00:10:06;;;;;;;20.20;6.07;;;20.40;67.00;;;;;;4819960;29;20036;-74
2022/09/23 00:12:32;;;;;;;20.85;6.07;;;20.40;66.90;;;;;;4796529;29;20051;-75
2022/09/23 00:14:58;;;;;;;19.05;5.75;;;20.40;66.90;;;;;;4807365;29;20080;-74
2022/09/23 00:17:24;;;;;;;18.60;6.20;;;20.40;66.90;;;;;;4806506;29;20394;-74
2022/09/23 00:19:50;;;;;;;18.45;6.07;;;20.40;66.80;;;;;;4817580;29;20031;-75
2022/09/23 00:22:16;;;;;;;19.35;6.75;;;20.40;66.90;;;;;;4816612;29;20126;-74
2022/09/23 00:24:41;;;;;;;14.70;5.53;;;20.40;66.90;;;;;;4806821;29;20086;-74
2022/09/23 00:27:07;;;;;;;14.95;6.50;;;20.40;66.90;;;;;;4813723;29;20058;-74
2022/09/23 00:29:33;;;;;;;16.38;6.10;;;20.40;66.90;;;;;;4810052;29;20038;-74
2022/09/23 00:31:59;;;;;;;18.63;7.15;;;20.40;66.90;;;;;;4811471;29;20034;-74
2022/09/23 00:34:24;;;;;;;16.85;6.50;;;20.40;66.90;;;;;;4807174;29;20635;-75
2022/09/23 00:36:50;;;;;;;12.27;5.40;;;20.40;66.90;;;;;;4806546;29;20030;-73
2022/09/23 00:39:16;;;;;;;16.92;6.03;;;20.40;66.90;;;;;;4787712;29;20031;-76
2022/09/23 00:41:42;;;;;;;11.73;5.82;;;20.40;66.80;;;;;;4819250;29;20126;-74
2022/09/23 00:44:38;;;;;;;17.23;5.70;;;20.40;66.70;;;;;;4811774;29;20061;-74
2022/09/23 00:47:11;;;;;;;16.50;5.90;;;20.40;66.90;;;;;;4809387;29;20026;-74
2022/09/23 00:49:37;;;;;;;12.35;5.78;;;20.40;67.00;;;;;;4813777;29;20070;-75
2022/09/23 00:52:12;;;;;;;13.90;6.47;;;20.40;67.10;;;;;;4804180;29;20089;-75
2022/09/23 00:54:38;;;;;;;13.30;5.78;;;20.40;67.20;;;;;;4804869;29;20490;-75
2022/09/23 00:57:04;;;;;;;15.30;6.18;;;20.40;67.30;;;;;;4803875;29;20099;-75
2022/09/23 00:59:31;;;;;;;14.70;6.25;;;20.40;67.30;;;;;;4813285;29;20022;-75
2022/09/23 01:01:59;;;;;;;13.20;5.75;;;20.40;67.40;;;;;;4808327;29;20139;-74
2022/09/23 01:04:27;;;;;;;15.00;6.03;;;20.40;67.40;;;;;;4804782;29;20503;-75
2022/09/23 01:06:53;;;;;;;12.65;5.97;;;20.40;67.40;;;;;;4809999;29;20030;-75
2022/09/23 01:09:20;;;;;;;15.45;6.60;;;20.40;67.40;;;;;;4803103;29;20035;-75
2022/09/23 01:12:09;;;;;;;15.10;6.25;;;20.40;67.90;;;;;;4801790;29;20414;-75
2022/09/23 01:15:03;;;;;;;10.48;5.43;;;20.40;67.30;;;;;;4816269;29;20038;-75
2022/09/23 01:17:52;;;;;;;15.20;6.43;;;20.40;67.50;;;;;;4815184;29;20057;-75
2022/09/23 01:20:40;;;;;;;14.02;5.78;;;20.40;67.50;;;;;;4817628;29;20481;-74
2022/09/23 01:23:31;;;;;;;15.60;5.80;;;20.40;67.70;;;;;;4809323;29;20119;-75
2022/09/23 01:26:09;;;;;;;13.80;5.80;;;20.40;67.80;;;;;;4809059;29;20030;-75
2022/09/23 01:29:10;;;;;;;13.68;5.38;;;20.40;67.90;;;;;;4809102;29;20026;-75
2022/09/23 01:31:52;;;;;;;14.35;5.75;;;20.40;67.90;;;;;;4816678;29;20054;-75
2022/09/23 01:35:08;;;;;;;11.63;5.43;;;20.40;68.10;;;;;;4805758;29;20398;-75
2022/09/23 01:37:57;;;;;;;12.95;5.43;;;20.40;67.90;;;;;;4813296;29;20042;-75
2022/09/23 01:40:46;;;;;;;16.23;5.40;;;20.40;68.60;;;;;;4806220;29;20078;-75
2022/09/23 01:43:18;;;;;;;12.80;5.68;;;20.40;68.20;;;;;;4795640;29;20051;-73
2022/09/23 01:45:52;;;;;;;13.07;6.07;;;20.40;68.20;;;;;;4803074;29;20030;-74
2022/09/23 01:48:32;;;;;;;13.88;5.75;;;20.40;68.30;;;;;;4796445;29;20038;-73
2022/09/23 01:51:07;;;;;;;14.48;5.22;;;20.40;68.30;;;;;;4817111;29;20027;-74
2022/09/23 01:53:42;;;;;;;10.93;5.20;;;20.40;68.40;;;;;;4815031;29;20113;-74
2022/09/23 01:56:15;;;;;;;14.02;5.53;;;20.40;68.40;;;;;;4819593;29;20388;-73
2022/09/23 01:58:48;;;;;;;15.93;5.28;;;20.40;68.20;;;;;;4806393;29;20031;-74
2022/09/23 02:01:24;;;;;;;11.77;5.32;;;20.40;68.50;;;;;;4811670;29;20616;-74
2022/09/23 02:04:24;;;;;;;13.98;5.70;;;20.40;68.40;;;;;;4811135;29;20533;-74
2022/09/23 02:07:08;;;;;;;11.05;5.18;;;20.40;68.40;;;;;;4793266;29;20046;-74
2022/09/23 02:09:41;;;;;;;12.57;5.78;;;20.40;68.40;;;;;;4808521;29;20030;-74
2022/09/23 02:12:14;;;;;;;11.18;5.45;;;20.40;68.40;;;;;;4824752;29;20457;-74
2022/09/23 02:14:52;;;;;;;10.32;5.18;;;20.40;68.40;;;;;;4812182;29;20018;-73
2022/09/23 02:17:27;;;;;;;11.95;5.85;;;20.40;68.60;;;;;;4794596;29;20027;-74
2022/09/23 02:20:00;;;;;;;11.00;5.38;;;20.40;68.60;;;;;;4815120;29;20401;-74
2022/09/23 02:22:39;;;;;;;10.63;5.30;;;20.40;68.60;;;;;;4824842;29;20397;-74
2022/09/23 02:25:07;;;;;;;10.85;5.43;;;20.40;68.70;;;;;;4820929;29;20026;-74
2022/09/23 02:28:01;;;;;;;9.43;4.95;;;20.40;68.80;;;;;;4819124;29;20034;-74
2022/09/23 02:30:34;;;;;;;15.05;5.53;;;20.40;68.80;;;;;;4808169;29;20406;-74
2022/09/23 02:33:16;;;;;;;11.57;5.20;;;20.40;68.80;;;;;;4799609;29;20114;-74
2022/09/23 02:35:53;;;;;;;11.45;5.10;;;20.40;68.70;;;;;;4817296;29;20033;-74
2022/09/23 02:38:45;;;;;;;11.43;4.82;;;20.40;68.70;;;;;;4811938;29;20450;-74
2022/09/23 02:41:55;;;;;;;11.32;4.80;;;20.40;68.70;;;;;;4817406;29;20046;-74
2022/09/23 02:44:22;;;;;;;;;;;20.40;68.60;;;;;;4806128;29;20413;-74
2022/09/23 02:46:52;;;;;;;12.45;5.57;;;20.40;68.60;;;;;;4813671;29;19920;-75
2022/09/23 02:49:22;;;;;;;14.73;5.57;;;20.40;68.70;;;;;;4812898;29;20465;-75
2022/09/23 02:51:48;;;;;;;9.50;5.05;;;20.40;68.70;;;;;;4824571;29;20034;-75
2022/09/23 02:54:18;;;;;;;10.65;5.30;;;20.40;68.60;;;;;;4803188;29;20038;-75
2022/09/23 02:56:44;;;;;;;11.52;5.45;;;20.40;68.50;;;;;;4814683;29;20038;-74
2022/09/23 02:59:11;;;;;;;10.55;4.85;;;20.40;68.40;;;;;;4812627;29;20033;-74
2022/09/23 03:01:55;;;;;;;13.93;5.60;;;20.40;68.30;;;;;;4807782;29;20045;-75
2022/09/23 03:04:31;;;;;;;14.15;5.65;;;20.40;68.30;;;;;;4807005;29;20039;-74
2022/09/23 03:07:09;;;;;;;12.30;5.28;;;20.40;68.40;;;;;;4810803;29;20167;-74
2022/09/23 03:10:08;;;;;;;12.00;5.68;;;20.40;68.40;;;;;;4817450;29;20053;-75
2022/09/23 03:13:03;;;;;;;11.85;5.25;;;20.40;68.30;;;;;;4805296;29;20046;-75
2022/09/23 03:15:38;;;;;;;13.75;5.30;;;20.40;68.30;;;;;;4790323;29;20383;-75
2022/09/23 03:18:20;;;;;;;13.25;5.43;;;20.40;68.20;;;;;;4808843;29;20442;-75
2022/09/23 03:21:10;;;;;;;11.45;5.25;;;20.40;68.20;;;;;;4818064;29;20049;-75
2022/09/23 03:23:39;;;;;;;11.40;5.45;;;20.40;68.10;;;;;;4804149;29;20557;-74
2022/09/23 03:26:22;;;;;;;18.85;5.15;;;20.40;68.00;;;;;;4809929;29;20031;-75
2022/09/23 03:28:49;;;;;;;11.75;4.72;;;20.40;68.20;;;;;;4806271;29;20032;-75
2022/09/23 03:31:16;;;;;;;13.15;5.20;;;20.40;68.20;;;;;;4812688;29;20453;-75
2022/09/23 03:33:47;;;;;;;12.25;5.45;;;20.30;68.20;;;;;;4807692;29;20474;-75
2022/09/23 03:39:05;;;;;;;10.35;4.68;;;20.40;68.40;;;;;;4805819;29;20035;-75
2022/09/23 03:41:40;;;;;;;10.73;5.30;;;20.40;68.50;;;;;;4806175;29;20071;-74
2022/09/23 03:44:07;;;;;;;10.98;4.97;;;20.40;68.50;;;;;;4811523;29;20063;-75
2022/09/23 03:46:34;;;;;;;9.80;4.85;;;20.40;68.50;;;;;;4805527;29;20451;-75
2022/09/23 03:49:26;;;;;;;13.88;5.75;;;20.40;68.50;;;;;;4804231;29;20417;-75
2022/09/23 03:51:52;;;;;;;9.98;4.72;;;20.30;68.40;;;;;;4822564;29;20062;-74
2022/09/23 03:54:19;;;;;;;9.57;5.03;;;20.30;68.40;;;;;;4811674;29;20023;-75
2022/09/23 03:57:10;;;;;;;10.50;4.85;;;20.30;68.50;;;;;;4796107;29;20383;-75
2022/09/23 03:59:37;;;;;;;12.10;4.80;;;20.40;68.60;;;;;;4817806;29;20401;-75
2022/09/23 04:02:04;;;;;;;12.82;4.60;;;20.30;68.60;;;;;;4809933;29;20542;-75
2022/09/23 04:04:32;;;;;;;12.82;5.82;;;20.40;68.70;;;;;;4813689;29;20505;-75
2022/09/23 04:06:58;;;;;;;11.77;5.18;;;20.40;68.60;;;;;;4820698;29;20133;-75
2022/09/23 04:09:23;;;;;;;10.02;4.93;;;20.40;68.60;;;;;;4814369;29;20236;-75
2022/09/23 04:11:50;;;;;;;9.52;4.75;;;20.40;68.70;;;;;;4809630;29;20042;-75
2022/09/23 04:14:18;;;;;;;12.60;4.63;;;20.40;68.80;;;;;;4818852;29;20026;-75
2022/09/23 04:16:44;;;;;;;14.90;5.07;;;20.40;68.80;;;;;;4810345;29;20034;-75
2022/09/23 04:19:11;;;;;;;9.77;4.90;;;20.40;68.70;;;;;;4814617;29;20266;-74
2022/09/23 04:21:37;;;;;;;11.77;5.35;;;20.40;68.90;;;;;;4809098;29;20080;-74
2022/09/23 04:24:04;;;;;;;11.43;4.90;;;20.40;68.80;;;;;;4811370;29;20023;-75
2022/09/23 04:26:31;;;;;;;10.93;5.00;;;20.40;68.80;;;;;;4816834;29;20046;-75
2022/09/23 04:28:58;;;;;;;10.25;4.47;;;20.40;68.70;;;;;;4804289;29;20031;-75
2022/09/23 04:31:23;;;;;;;11.45;5.03;;;20.40;68.80;;;;;;4804609;29;20038;-75
2022/09/23 04:33:51;;;;;;;14.55;4.70;;;20.40;68.80;;;;;;4800707;29;20030;-74
2022/09/23 04:36:17;;;;;;;8.68;4.68;;;20.40;68.90;;;;;;4813186;29;20022;-75
2022/09/23 04:38:48;;;;;;;10.18;5.07;;;20.40;68.80;;;;;;4813372;29;20026;-75
2022/09/23 04:41:15;;;;;;;10.75;4.75;;;20.40;68.80;;;;;;4809981;29;20026;-75
2022/09/23 04:43:41;;;;;;;11.65;5.20;;;20.30;68.70;;;;;;4798096;29;20520;-74
2022/09/23 04:46:10;;;;;;;9.50;4.90;;;20.40;68.70;;;;;;4821704;29;20034;-75
2022/09/23 04:48:37;;;;;;;9.60;4.60;;;20.40;68.70;;;;;;4803083;29;20067;-74
2022/09/23 04:51:06;;;;;;;10.05;4.95;;;20.40;68.70;;;;;;4803608;29;20031;-75
2022/09/23 04:53:33;;;;;;;9.43;4.75;;;20.30;68.70;;;;;;4818178;29;20509;-74
2022/09/23 04:56:04;;;;;;;12.77;5.20;;;20.40;68.60;;;;;;4804555;29;20026;-74
2022/09/23 04:58:31;;;;;;;8.13;4.28;;;20.30;68.70;;;;;;4817314;29;20023;-75
2022/09/23 05:00:57;;;;;;;10.43;4.50;;;20.40;68.80;;;;;;4810577;29;20489;-74
2022/09/23 05:03:23;;;;;;;8.63;5.15;;;20.30;68.70;;;;;;4781182;29;20115;-74
2022/09/23 05:05:49;;;;;;;10.63;4.95;;;20.40;68.70;;;;;;4787248;29;20034;-75
2022/09/23 05:08:18;;;;;;;10.52;4.80;;;20.40;68.70;;;;;;4797942;29;20039;-75
2022/09/23 05:10:44;;;;;;;8.43;4.30;;;20.30;68.70;;;;;;4805753;29;20060;-75
2022/09/23 05:13:10;;;;;;;9.82;4.85;;;20.30;68.60;;;;;;4808998;29;20027;-75
2022/09/23 05:15:36;;;;;;;7.63;4.50;;;20.30;68.70;;;;;;4791105;29;20034;-75
2022/09/23 05:18:02;;;;;;;8.65;4.65;;;20.40;68.70;;;;;;4796999;29;20022;-75
2022/09/23 05:20:27;;;;;;;8.80;4.57;;;20.30;68.60;;;;;;4813182;29;20035;-75
2022/09/23 05:22:54;;;;;;;11.07;5.20;;;20.30;68.40;;;;;;4822593;29;20449;-75
2022/09/23 05:25:22;;;;;;;10.55;4.70;;;20.30;68.80;;;;;;4814304;29;20121;-76
2022/09/23 05:27:48;;;;;;;9.15;4.88;;;20.30;68.70;;;;;;4811221;29;20087;-75
2022/09/23 05:30:14;;;;;;;8.50;4.97;;;20.30;68.70;;;;;;4797143;29;20079;-75
2022/09/23 05:32:40;;;;;;;9.77;4.88;;;20.30;69.00;;;;;;4806624;29;20451;-75
2022/09/23 05:35:06;;;;;;;10.70;5.05;;;20.40;68.90;;;;;;4806606;29;20497;-76
2022/09/23 05:37:32;;;;;;;10.02;4.50;;;20.40;69.00;;;;;;4821240;29;20393;-75
2022/09/23 05:39:58;;;;;;;11.07;4.90;;;20.40;69.00;;;;;;4813793;29;20029;-75
2022/09/23 05:42:24;;;;;;;9.02;4.70;;;20.40;68.90;;;;;;4803435;29;20031;-75
2022/09/23 05:44:50;;;;;;;9.40;4.55;;;20.40;68.80;;;;;;4793784;29;20027;-75
2022/09/23 05:47:15;;;;;;;11.10;4.88;;;20.40;68.70;;;;;;4810487;29;20029;-75
2022/09/23 05:49:41;;;;;;;8.52;4.80;;;20.40;68.70;;;;;;4801122;29;20052;-75
2022/09/23 05:52:07;;;;;;;13.30;4.97;;;20.40;68.60;;;;;;4801794;29;20490;-75
2022/09/23 05:54:33;;;;;;;7.07;4.32;;;20.40;68.40;;;;;;4803808;29;20061;-75
2022/09/23 05:56:58;;;;;;;9.85;4.90;;;20.40;68.40;;;;;;4804146;29;20058;-75
2022/09/23 05:59:24;;;;;;;10.95;4.70;;;20.40;68.30;;;;;;4804173;29;20031;-75
2022/09/23 06:01:50;;;;;;;9.40;4.75;;;20.40;68.30;;;;;;4787426;29;20039;-75
2022/09/23 06:04:16;;;;;;;12.02;5.65;;;20.30;68.40;;;;;;4802787;29;20046;-75
2022/09/23 06:06:42;;;;;;;12.15;5.72;;;20.40;68.40;;;;;;4803809;29;20035;-74
2022/09/23 06:09:13;;;;;;;10.85;4.70;;;20.30;68.50;;;;;;4787609;29;20031;-75
2022/09/23 06:11:40;;;;;;;9.77;5.00;;;20.40;68.40;;;;;;4787281;29;20074;-75
2022/09/23 06:14:06;;;;;;;9.82;5.00;;;20.40;68.30;;;;;;4803783;29;20406;-75
2022/09/23 06:16:34;;;;;;;9.43;4.90;;;20.30;68.40;;;;;;4804112;29;20394;-76
2022/09/23 06:19:04;;;;;;;10.10;4.88;;;20.40;68.40;;;;;;4803707;29;20027;-76
2022/09/23 06:21:30;;;;;;;10.57;4.88;;;20.40;68.40;;;;;;4802971;29;20042;-75
2022/09/23 06:23:59;;;;;;;9.85;4.80;;;20.40;68.40;;;;;;4787085;29;20041;-74
2022/09/23 06:26:25;;;;;;;9.40;4.65;;;20.40;68.50;;;;;;4803993;29;20030;-75
2022/09/23 06:28:51;;;;;;;11.75;5.00;;;20.30;68.30;;;;;;4787149;29;20039;-74
2022/09/23 06:31:17;;;;;;;9.98;4.85;;;20.40;68.20;;;;;;4803589;29;20046;-74
2022/09/23 06:33:44;;;;;;;9.05;4.70;;;20.30;68.30;;;;;;4800328;29;20027;-74
2022/09/23 06:36:11;;;;;;;14.98;5.22;;;20.30;68.30;;;;;;4782738;29;20034;-74
2022/09/23 06:38:48;;;;;;;17.83;4.85;;;20.40;68.20;;;;;;4798155;29;20039;-74
2022/09/23 06:41:15;;;;;;;13.25;5.13;;;20.40;68.10;;;;;;4803825;29;20035;-74
2022/09/23 06:43:40;;;;;;;12.20;5.20;;;20.40;68.00;;;;;;4802094;29;20106;-74
2022/09/23 06:46:14;;;;;;;18.50;5.18;;;20.40;67.80;;;;;;4817220;29;20113;-74
2022/09/23 06:48:41;;;;;;;16.23;6.13;;;20.50;72.10;;;;;;4810103;29;20035;-75
2022/09/23 06:51:06;;;;;;;10.75;4.95;;;20.60;72.80;;;;;;4817702;29;20092;-75
2022/09/23 06:53:33;;;;;;;17.30;6.13;;;20.70;74.20;;;;;;4808440;29;20512;-74
2022/09/23 06:56:07;;;;;;;12.85;5.80;;;20.80;72.20;;;;;;4820493;29;20063;-74
2022/09/23 06:58:34;;;;;;;17.25;5.57;;;20.90;72.70;;;;;;4818555;29;20508;-75
2022/09/23 07:01:07;;;;;;;18.67;6.45;;;20.90;72.00;;;;;;4810329;29;20023;-75
2022/09/23 07:03:34;;;;;;;15.43;6.05;;;20.80;71.50;;;;;;4801486;29;20031;-75
2022/09/23 07:06:00;;;;;;;14.13;5.47;;;20.70;71.50;;;;;;4786336;29;20035;-75
2022/09/23 07:08:28;;;;;;;13.02;5.45;;;20.70;71.50;;;;;;4789885;29;20039;-75
2022/09/23 07:10:58;;;;;;;20.08;6.03;;;20.70;71.60;;;;;;4798691;29;20388;-75
2022/09/23 07:13:25;;;;;;;9.80;5.50;;;20.70;71.20;;;;;;4806199;29;20058;-76
2022/09/23 07:15:52;;;;;;;15.85;5.30;;;20.70;71.30;;;;;;4802380;29;20031;-75
2022/09/23 07:18:22;;;;;;;14.88;5.63;;;20.70;71.50;;;;;;4805209;29;20019;-74
2022/09/23 07:20:49;;;;;;;20.20;6.20;;;20.70;71.00;;;;;;4817709;29;20030;-74
2022/09/23 07:23:16;;;;;;;17.75;5.25;;;20.70;70.80;;;;;;4793610;29;20126;-74
2022/09/23 07:25:43;;;;;;;16.40;5.38;;;20.70;70.90;;;;;;4805153;29;20055;-90
2022/09/23 07:28:09;;;;;;;20.02;5.32;;;20.70;70.80;;;;;;4788141;29;20074;-92
2022/09/23 07:30:37;;;;;;;19.95;5.82;;;20.70;70.10;;;;;;4775066;29;20062;-75
2022/09/23 07:33:03;;;;;;;24.73;6.63;;;20.60;70.30;;;;;;4814193;29;20031;-74
2022/09/23 07:35:29;;;;;;;16.23;5.25;;;20.50;68.30;;;;;;4822978;29;20078;-74
2022/09/23 07:37:55;;;;;;;17.35;5.38;;;20.50;66.50;;;;;;4811972;29;20034;-74
2022/09/23 07:40:20;;;;;;;30.80;7.90;;;20.60;66.40;;;;;;4789671;29;20100;-75
2022/09/23 07:42:46;;;;;;;51.20;9.90;;;20.60;66.70;;;;;;4816063;29;20022;-75
2022/09/23 07:45:12;;;;;;;53.10;10.45;;;20.60;66.80;;;;;;4823547;29;20101;-72
2022/09/23 07:47:38;;;;;;;42.95;9.00;;;20.60;66.80;;;;;;4817736;29;20030;-74
2022/09/23 07:50:06;;;;;;;33.17;9.00;;;20.70;67.10;;;;;;4807151;29;20046;-74
2022/09/23 07:52:36;;;;;;;24.08;7.20;;;20.70;67.20;;;;;;4790160;29;20113;-74
2022/09/23 07:55:03;;;;;;;27.27;7.43;;;20.70;66.90;;;;;;4810105;29;20030;-74
2022/09/23 07:57:29;;;;;;;31.30;7.97;;;20.80;67.10;;;;;;4804203;29;20447;-74
2022/09/23 07:59:55;;;;;;;29.83;8.00;;;20.80;67.40;;;;;;4795703;29;20023;-73
2022/09/23 08:02:21;;;;;;;26.83;7.88;;;20.80;67.40;;;;;;4811342;29;20038;-75
2022/09/23 08:04:48;;;;;;;35.58;7.78;;;20.90;67.60;;;;;;4813406;29;20106;-75
2022/09/23 08:07:15;;;;;;;33.60;7.45;;;21.00;68.10;;;;;;4817496;29;20030;-76
2022/09/23 08:09:42;;;;;;;43.88;8.00;;;20.90;68.00;;;;;;4822748;29;20050;-76
2022/09/23 08:12:10;;;;;;;47.75;8.40;;;20.90;67.90;;;;;;4822651;29;20038;-75
2022/09/23 08:14:37;;;;;;;59.53;8.90;;;21.00;67.90;;;;;;4823186;29;20402;-75
2022/09/23 08:17:04;;;;;;;45.00;7.82;;;20.90;68.20;;;;;;4806790;29;20050;-76
2022/09/23 08:19:29;;;;;;;26.98;7.35;;;20.90;68.00;;;;;;4823571;29;20041;-74
2022/09/23 08:21:56;;;;;;;28.70;6.65;;;20.80;67.80;;;;;;4804870;29;20485;-74
2022/09/23 08:24:23;;;;;;;26.45;6.72;;;20.70;65.80;;;;;;4804416;29;20035;-73
2022/09/23 08:26:53;;;;;;;37.67;6.50;;;20.70;65.70;;;;;;4800869;29;20122;-73
2022/09/23 08:29:21;;;;;;;23.45;6.50;;;20.80;65.60;;;;;;4804153;29;20035;-74
2022/09/23 08:31:48;;;;;;;34.85;6.65;;;20.90;65.50;;;;;;4803271;29;20090;-73
2022/09/23 08:34:18;;;;;;;27.88;6.60;;;20.80;65.40;;;;;;4788336;29;20035;-74
2022/09/23 08:36:44;;;;;;;28.00;6.45;;;20.80;65.50;;;;;;4804430;29;20059;-74
2022/09/23 08:39:17;;;;;;;22.48;6.45;;;20.80;65.60;;;;;;4803916;29;20114;-74
2022/09/23 08:41:55;;;;;;;24.20;6.40;;;20.80;66.30;;;;;;4803655;29;20043;-74
2022/09/23 08:44:41;;;;;;;21.58;6.20;;;20.80;66.00;;;;;;4804476;29;20042;-74
2022/09/23 08:47:28;;;;;;;21.45;6.22;;;20.70;66.00;;;;;;4804747;29;20031;-74
2022/09/23 08:50:15;;;;;;;22.85;6.30;;;20.70;66.00;;;;;;4855162;23;20046;-74
2022/09/23 08:52:47;;;;;;;22.77;5.95;;;20.80;66.20;;;;;;4840123;29;20064;-74
2022/09/23 08:55:14;;;;;;;23.65;6.60;;;20.80;66.30;;;;;;4824406;29;20034;-74
2022/09/23 08:58:00;;;;;;;23.27;6.95;;;20.80;66.40;;;;;;4824592;29;20026;-74
2022/09/23 09:00:35;;;;;;;24.70;6.25;;;20.80;66.50;;;;;;4822469;29;20053;-74
2022/09/23 09:03:13;;;;;;;26.13;6.57;;;20.80;66.60;;;;;;4822536;29;20037;-74
2022/09/23 09:05:40;;;;;;;23.33;6.80;;;20.80;66.70;;;;;;4806524;29;20118;-73
2022/09/23 09:08:07;;;;;;;22.13;7.63;;;20.90;66.80;;;;;;4822757;29;20066;-73
2022/09/23 09:10:41;;;;;;;23.10;7.00;;;20.90;66.80;;;;;;4822193;29;20095;-73
2022/09/23 09:13:22;;;;;;;20.40;7.38;;;20.90;66.80;;;;;;4806010;29;20443;-74
2022/09/23 09:16:05;;;;;;;26.48;7.43;;;20.90;66.80;;;;;;4822279;29;20037;-74
2022/09/23 09:18:32;;;;;;;29.98;8.35;;;21.00;66.70;;;;;;4806180;29;20034;-74
2022/09/23 09:21:11;;;;;;;30.10;8.48;;;21.00;66.80;;;;;;4822221;29;20056;-74
2022/09/23 09:23:56;;;;;;;28.63;8.85;;;21.00;66.70;;;;;;4806045;29;20647;-74
2022/09/23 09:26:26;;;;;;;28.48;8.35;;;21.00;66.90;;;;;;4806395;29;20042;-74
2022/09/23 09:29:07;;;;;;;27.33;8.70;;;21.00;66.90;;;;;;4806074;29;20034;-74
2022/09/23 09:31:48;;;;;;;34.17;9.43;;;21.00;66.90;;;;;;4821965;29;20151;-74
2022/09/23 09:34:33;;;;;;;27.15;9.43;;;21.00;67.10;;;;;;4822333;29;20082;-74
2022/09/23 09:37:07;;;;;;;29.63;9.00;;;21.00;67.00;;;;;;4821961;29;20113;-74
2022/09/23 09:39:34;;;;;;;32.15;10.05;;;21.00;67.10;;;;;;4822115;29;20537;-74
2022/09/23 09:42:01;;;;;;;30.25;10.32;;;21.00;67.30;;;;;;4805231;29;20091;-75
2022/09/23 09:44:41;;;;;;;33.35;10.45;;;21.00;67.50;;;;;;4821948;29;20065;-75
2022/09/23 09:47:27;;;;;;;33.25;10.77;;;21.00;67.60;;;;;;4822285;29;20074;-75
2022/09/23 09:50:08;;;;;;;34.35;10.70;;;21.00;67.60;;;;;;4805539;29;20046;-75
2022/09/23 09:52:35;;;;;;;38.58;11.02;;;20.90;67.60;;;;;;4821542;29;20069;-74
2022/09/23 09:55:12;;;;;;;38.03;11.32;;;20.90;67.60;;;;;;4822042;29;20059;-74
2022/09/23 09:57:53;;;;;;;28.65;10.23;;;20.90;67.60;;;;;;4821928;29;20038;-74
2022/09/23 10:00:25;;;;;;;29.63;9.77;;;21.00;67.60;;;;;;4805599;29;20374;-74
2022/09/23 10:02:58;;;;;;;24.48;9.30;;;20.90;67.50;;;;;;4821314;29;20039;-75
2022/09/23 10:05:45;;;;;;;30.05;9.65;;;20.90;67.50;;;;;;4805712;29;20022;-75
2022/09/23 10:08:33;;;;;;;29.13;8.27;;;21.00;67.50;;;;;;4822051;29;20050;-75
2022/09/23 10:11:17;;;;;;;29.55;9.63;;;21.00;67.50;;;;;;4821981;29;20104;-75
2022/09/23 10:14:18;;;;;;;25.38;8.70;;;21.00;67.50;;;;;;4805329;29;20038;-74
2022/09/23 10:16:47;;;;;;;28.52;9.50;;;21.00;67.40;;;;;;4800679;29;20402;-74
2022/09/23 10:19:25;;;;;;;37.67;11.45;;;21.00;67.70;;;;;;4814876;29;20403;-74
2022/09/23 10:21:58;;;;;;;40.17;12.00;;;21.00;68.00;;;;;;4804795;29;20086;-74
2022/09/23 10:24:31;;;;;;;35.22;10.95;;;21.10;68.20;;;;;;4810331;29;20039;-74
2022/09/23 10:27:06;;;;;;;39.45;11.90;;;21.10;68.00;;;;;;4809392;29;20034;-74
2022/09/23 10:29:35;;;;;;;35.88;12.80;;;21.10;68.00;;;;;;4821375;29;20034;-74
2022/09/23 10:32:28;;;;;;;34.83;11.10;;;21.10;68.10;;;;;;4802947;29;20042;-74
2022/09/23 10:34:56;;;;;;;34.83;11.68;;;21.20;68.40;;;;;;4817020;29;20030;-74
2022/09/23 10:37:38;;;;;;;32.22;10.68;;;21.30;70.20;;;;;;4820086;29;20034;-78
2022/09/23 10:46:48;;;;;;;9.93;4.80;;;20.90;60.00;;;;;;4824010;29;20042;-78
2022/09/23 10:49:42;;;;;;;14.68;4.60;;;20.70;55.90;;;;;;4824621;29;20050;-78
2022/09/23 10:52:17;;;;;;;13.10;4.32;;;20.60;61.20;;;;;;4819410;29;20038;-75
2022/09/23 10:55:12;;;;;;;11.85;3.67;;;20.70;58.60;;;;;;4820836;29;20110;-75
2022/09/23 10:57:44;;;;;;;12.15;3.60;;;20.70;59.00;;;;;;4824243;29;20038;-74
2022/09/23 11:00:22;;;;;;;9.32;4.00;;;20.80;58.20;;;;;;4824404;29;20033;-74
2022/09/23 11:03:16;;;;;;;11.10;4.00;;;20.90;59.00;;;;;;4807907;29;20053;-75
2022/09/23 11:05:57;;;;;;;8.48;3.38;;;20.90;59.80;;;;;;4808370;29;20421;-74
2022/09/23 11:08:35;;;;;;;13.23;4.30;;;20.90;60.20;;;;;;4824106;29;20069;-73
2022/09/23 11:11:26;;;;;;;9.48;4.22;;;20.90;60.50;;;;;;4793113;29;20058;-74
2022/09/23 11:14:02;;;;;;;11.05;4.60;;;20.90;61.00;;;;;;4823761;29;20766;-74
2022/09/23 11:16:37;;;;;;;19.60;5.35;;;21.00;61.70;;;;;;4823270;29;20064;-74
2022/09/23 11:19:12;;;;;;;15.32;6.47;;;21.00;62.70;;;;;;4823857;29;20054;-76
2022/09/23 11:22:00;;;;;;;16.75;6.20;;;21.00;62.70;;;;;;4807511;29;20349;-75
2022/09/23 11:24:56;;;;;;;14.88;6.55;;;20.90;62.00;;;;;;4823976;29;20478;-75
2022/09/23 11:27:29;;;;;;;13.85;6.75;;;20.90;60.70;;;;;;4824068;29;20095;-75
2022/09/23 11:30:11;;;;;;;15.25;5.95;;;20.80;60.20;;;;;;4807507;29;20095;-75
2022/09/23 11:33:14;;;;;;;12.45;4.47;;;20.80;59.70;;;;;;4823629;29;20034;-76
2022/09/23 11:35:54;;;;;;;22.15;7.53;;;20.70;58.60;;;;;;4822480;29;20034;-75
2022/09/23 11:38:24;;;;;;;13.75;4.82;;;20.70;58.80;;;;;;4819161;29;20078;-78
2022/09/23 11:41:11;;;;;;;12.07;4.60;;;20.70;57.10;;;;;;4803872;29;20124;-76
2022/09/23 11:43:40;;;;;;;15.23;4.18;;;20.70;57.30;;;;;;4822618;29;20088;-76
2022/09/23 11:46:13;;;;;;;12.32;3.70;;;20.70;57.30;;;;;;4822871;29;20508;-73
2022/09/23 11:48:42;;;;;;;13.68;3.90;;;20.70;57.20;;;;;;4822682;29;20458;-67
2022/09/23 11:51:13;;;;;;;;;;;20.70;57.00;;;;;;4823747;29;20087;-69
2022/09/23 11:53:46;;;;;;;29.67;7.18;;;20.70;56.70;;;;;;4823329;29;19917;-70
2022/09/23 11:56:26;;;;;;;41.20;10.93;;;20.70;56.00;;;;;;4823339;29;20030;-79
2022/09/23 11:59:17;;;;;;;36.47;8.52;;;20.70;56.20;;;;;;4823869;29;20034;-76
2022/09/23 12:01:48;;;;;;;23.55;5.95;;;20.70;55.50;;;;;;4791760;29;20049;-75
2022/09/23 12:04:27;;;;;;;17.60;5.18;;;20.70;55.40;;;;;;4821176;29;20034;-75
2022/09/23 12:07:07;;;;;;;20.80;5.75;;;20.70;55.70;;;;;;4821908;29;20064;-76
2022/09/23 12:09:33;;;;;;;;;;;20.80;56.20;;;;;;4824013;29;20041;-76
2022/09/23 12:12:10;;;;;;;26.27;6.38;;;20.80;56.60;;;;;;4806660;29;20332;-76
2022/09/23 12:14:55;;;;;;;29.65;6.57;;;20.80;57.00;;;;;;4823717;29;20038;-75
2022/09/23 12:17:42;;;;;;;21.42;5.75;;;20.80;57.40;;;;;;4822007;29;20068;-75
2022/09/23 12:20:33;;;;;;;20.77;5.70;;;20.90;57.70;;;;;;4823112;29;20050;-75
2022/09/23 12:23:40;;;;;;;29.15;9.50;;;20.90;58.00;;;;;;4821552;29;20042;-76
2022/09/23 12:26:16;;;;;;;33.47;10.40;;;20.90;59.00;;;;;;4822118;29;20037;-76
2022/09/23 12:28:46;;;;;;;26.75;7.05;;;20.90;59.10;;;;;;4821863;29;20033;-76
2022/09/23 12:31:15;;;;;;;25.83;7.50;;;20.90;59.10;;;;;;4823215;29;20076;-76
2022/09/23 12:33:52;;;;;;;23.23;7.22;;;20.90;59.20;;;;;;4804382;29;20023;-75
2022/09/23 12:36:25;;;;;;;32.47;11.02;;;20.90;59.50;;;;;;4813991;29;20415;-78
2022/09/23 12:39:13;;;;;;;30.50;9.00;;;20.90;60.50;;;;;;4822892;29;20034;-78
2022/09/23 12:41:48;;;;;;;29.63;11.35;;;20.90;60.40;;;;;;4818707;29;20490;-76
2022/09/23 12:44:30;;;;;;;34.58;13.45;;;20.90;59.50;;;;;;4813067;29;20057;-77
2022/09/23 12:47:20;;;;;;;28.42;13.75;;;20.80;58.00;;;;;;4822776;29;20030;-75
2022/09/23 12:49:47;;;;;;;33.30;12.77;;;20.80;57.30;;;;;;4814742;29;20066;-75
2022/09/23 12:52:26;;;;;;;29.95;12.07;;;20.80;57.30;;;;;;4805754;29;20106;-76
2022/09/23 12:55:15;;;;;;;;;;;20.80;57.60;;;;;;4823060;29;20037;-75
2022/09/23 12:57:41;;;;;;;31.95;12.55;;;20.80;57.90;;;;;;4796348;29;20452;-76
2022/09/23 13:00:11;;;;;;;36.33;14.13;;;20.80;58.30;;;;;;4822558;29;20067;-76
2022/09/23 13:02:46;;;;;;;39.22;15.52;;;20.90;58.70;;;;;;4806075;29;20038;-76
2022/09/23 13:08:23;;;;;;;41.75;14.65;;;20.90;59.30;;;;;;4804158;29;20486;-76
2022/09/23 13:10:57;;;;;;;41.35;14.70;;;20.90;59.60;;;;;;4803103;29;20043;-76
2022/09/23 13:13:44;;;;;;;43.30;14.40;;;20.90;59.70;;;;;;4803945;29;20297;-76
2022/09/23 13:16:28;;;;;;;53.60;16.98;;;20.90;60.00;;;;;;4804384;29;20027;-76
2022/09/23 13:18:54;;;;;;;40.95;15.07;;;20.90;60.20;;;;;;4787942;29;20035;-76
2022/09/23 13:21:41;;;;;;;43.72;15.45;;;20.90;60.30;;;;;;4804054;29;20126;-76